Gadsden, AZ

1:10 AM MST on October 24, 2014 (GMT -0700)
YCWUA International Boundary Pumping Plant | Change Station
CLOSE
Current Station
Personal Weather Station
Location: San Luis, AZ
Elevation: 79 ft
Nearby Weather Stations

Elev 79 ft 32.49 °N, 114.79 °W | Updated 18 seconds ago

Clear
Clear
73.7 °F
Feels Like 77 °F
N
0.0
Wind Variable Wind from East
Gusts 1.0 mph

Today
High -- | Low -- °F
--% Chance of Precip.
Yesterday
High -- | Low -- °F
Precip. -- in
6:49 AM 5:56 PM
New Moon, 0% visible
Pressure 29.92 in
Visibility 10.0 miles
Clouds Clear
Heat Index 77 °F
Dew Point 48 °F
Humidity 40%
Rainfall 0.00 in
Snow Depth Not available.
UV 0 out of 12
Pollen 6.50 out of 12
Air Quality Not available.
Flu Activity No Activity
METAR KNYL 240757Z 16004KT 10SM CLR 23/09 A2993 RMK AO2 SLP131 T02280089

More Conditions Fewer Conditions

Pressure 29.92 in
Visibility 10.0 miles
Clouds Clear
Heat Index 77 °F
Dew Point 48 °F
Humidity 40%
Rainfall 0.00 in
Snow Depth Not available.
UV 0 out of 12
Pollen 6.50 out of 12
Air Quality Not available.
Flu Activity No Activity
METAR KNYL 240757Z 16004KT 10SM CLR 23/09 A2993 RMK AO2 SLP131 T02280089

More Conditions Fewer Conditions

10-Day Weather Forecast

Almanac

Astronomy

Oct. 24, 2014 Rise Set
Actual Time 6:49 AM MST 5:56 PM MST
Civil Twilight 6:24 AM MST 6:21 PM MST
Nautical Twilight 5:56 AM MST 6:49 PM MST
Astronomical Twilight 5:27 AM MST 7:18 PM MST
Moon 7:31 AM MST 6:41 PM MST
Length of Visible Light 11h 56m
Length of Day
11h 06m
Tomorrow will be 1m 50s shorter.
New Moon, 0% of the Moon is Illuminated
Today
New Moon
Oct 30
First Quarter
Nov 6
Full
Nov 14
Last Quarter
Nov 22
New

Today's Extremes

State Highs State Lows

Community

WunderPhotos

Upload Photos

1,764,511 photos uploaded!

WunderBlogs® & News

Nearby

Snow Depth

Station Depth Elevation
White Horse Lake 1 in 7180 ft
Baker Butte 0 in 7300 ft
Workman Creek 0 in 6900 ft
Happy Jack 0 in 7630 ft
Mormon Mountain 0 in 7500 ft

Earthquake Activity

City Distance Mag. Time & Date
Alberto Oviedo Mota, Mexico 85 miles 3.5 9:05 PM MST
2014-10-21
Delta, Mexico 28 miles 2.5 8:53 PM MST
2014-10-21
Alberto Oviedo Mota, Mexico 36 miles 2.7 4:13 PM MST
2014-10-21
Alberto Oviedo Mota, Mexico 35 miles 3.3 3:57 PM MST
2014-10-21
Minimum magnitude displayed is 2.5.

Coastal Water Temperatures

Place Temperature
No Stations Reporting

Nearby Weather Stations